Time;durP1;ratioP1;P1;durP2;ratioP2;P2;SDS_P1;SDS_P2;PMS_P1;PMS_P2;Temp;Humidity;BMP_temperature;BMP_pressure;BME280_temperature;BME280_humidity;BME280_pressure;Samples;Min_cycle;Max_cycle;Signal;HPM_P1;HPM_P2
2022/10/23 00:02:01;;;;;;;16.60;12.30;;;;;;;13.48;77.25;95378.44;5093421;28;20448;-75
2022/10/23 00:04:28;;;;;;;14.13;10.13;;;;;;;13.51;77.39;95354.44;5093139;28;20451;-75
2022/10/23 00:06:54;;;;;;;19.73;12.03;;;;;;;13.50;77.10;95356.25;5093531;28;20443;-75
2022/10/23 00:09:24;;;;;;;18.70;12.55;;;;;;;13.54;77.22;95351.53;5040160;28;20436;-75
2022/10/23 00:11:51;;;;;;;17.37;11.03;;;;;;;13.58;76.95;95352.91;5093274;28;20216;-76
2022/10/23 00:14:21;;;;;;;12.00;10.70;;;;;;;13.55;76.62;95348.75;5093030;28;20440;-75
2022/10/23 00:16:48;;;;;;;13.57;11.07;;;;;;;13.55;76.96;95351.38;5093018;28;20436;-75
2022/10/23 00:19:16;;;;;;;13.53;11.57;;;;;;;13.50;77.12;95350.97;5093208;28;20490;-75
2022/10/23 00:21:43;;;;;;;15.77;11.43;;;;;;;13.47;77.30;95340.69;5040940;28;20455;-75
2022/10/23 00:24:09;;;;;;;16.50;11.60;;;;;;;13.45;77.17;95352.34;5092909;28;20447;-75
2022/10/23 00:26:37;;;;;;;18.37;11.43;;;;;;;13.44;77.45;95351.53;5092818;28;20447;-75
2022/10/23 00:29:04;;;;;;;19.27;10.53;;;;;;;13.39;77.44;95330.00;5092968;28;20534;-75
2022/10/23 00:31:30;;;;;;;15.37;11.47;;;;;;;13.38;77.57;95315.16;5093194;28;20462;-76
2022/10/23 00:33:57;;;;;;;15.60;12.20;;;;;;;13.37;78.12;95313.50;5092784;28;20451;-76
2022/10/23 00:36:25;;;;;;;13.87;11.80;;;;;;;13.34;77.94;95326.97;5092626;28;20520;-75
2022/10/23 00:38:52;;;;;;;22.23;11.07;;;;;;;13.31;78.31;95321.97;5073389;28;20476;-75
2022/10/23 00:41:22;;;;;;;17.53;11.67;;;;;;;13.25;77.91;95336.50;5092828;28;20801;-74
2022/10/23 00:44:01;;;;;;;20.60;13.07;;;;;;;13.29;78.43;95323.88;5092610;28;20452;-75
2022/10/23 00:46:29;;;;;;;23.73;12.50;;;;;;;13.34;78.13;95340.13;5056886;28;20447;-75
2022/10/23 00:48:56;;;;;;;13.40;11.27;;;;;;;13.37;77.88;95333.75;5092370;28;20804;-75
2022/10/23 00:51:25;;;;;;;21.37;12.77;;;;;;;13.37;78.18;95331.13;5073509;28;20455;-75
2022/10/23 00:53:56;;;;;;;15.50;11.43;;;;;;;13.32;77.96;95321.00;5092180;28;20476;-75
2022/10/23 00:56:22;;;;;;;17.90;11.63;;;;;;;13.36;77.89;95325.00;5092270;28;20448;-75
2022/10/23 00:58:52;;;;;;;14.10;10.70;;;;;;;13.37;78.21;95328.47;5092325;28;21022;-76
2022/10/23 01:01:21;;;;;;;14.77;11.70;;;;;;;13.39;78.36;95334.44;5092267;28;20451;-75
2022/10/23 01:03:48;;;;;;;20.83;12.37;;;;;;;13.35;78.19;95322.53;5092190;28;20440;-75
2022/10/23 01:06:25;;;;;;;22.33;13.60;;;;;;;13.42;77.97;95326.25;5092329;28;20855;-75
2022/10/23 01:09:04;;;;;;;16.23;11.27;;;;;;;13.49;77.52;95333.47;5092340;28;20994;-75
2022/10/23 01:11:39;;;;;;;19.60;12.03;;;;;;;13.39;77.71;95364.28;5092269;28;20443;-75
2022/10/23 01:14:15;;;;;;;15.77;12.50;;;;;;;12.89;79.45;95377.41;5092182;28;20443;-75
2022/10/23 01:16:50;;;;;;;25.50;16.07;;;;;;;12.86;79.80;95330.25;5092417;28;20930;-76
2022/10/23 01:19:22;;;;;;;27.43;17.20;;;;;;;12.08;82.36;95375.53;5092285;28;20478;-75
2022/10/23 01:21:56;;;;;;;24.27;16.50;;;;;;;11.66;82.71;95393.84;5092149;28;21000;-75
2022/10/23 01:24:37;;;;;;;26.20;18.00;;;;;;;11.66;83.80;95380.69;5092079;28;20442;-75
2022/10/23 01:27:23;;;;;;;23.90;16.40;;;;;;;11.46;84.67;95407.75;5092193;28;20984;-74
2022/10/23 01:30:02;;;;;;;29.33;19.63;;;;;;;11.67;84.07;95403.41;5090727;28;20440;-75
2022/10/23 01:32:35;;;;;;;25.13;18.90;;;;;;;11.79;83.35;95412.94;5092021;28;20287;-75
2022/10/23 01:35:05;;;;;;;26.73;18.43;;;;;;;11.85;82.81;95406.34;5091908;28;20452;-75
2022/10/23 01:37:39;;;;;;;30.53;19.17;;;;;;;11.98;82.79;95406.19;5092304;28;20435;-75
2022/10/23 01:40:12;;;;;;;27.27;18.43;;;;;;;12.10;83.12;95413.06;5092169;28;20489;-75
2022/10/23 01:42:47;;;;;;;24.37;18.60;;;;;;;12.24;82.66;95431.19;5092006;28;20448;-75
2022/10/23 01:45:21;;;;;;;28.47;19.10;;;;;;;12.35;81.40;95425.03;5091695;28;20825;-75
2022/10/23 01:47:49;;;;;;;27.87;18.00;;;;;;;12.38;81.15;95430.84;5092101;28;20945;-75
2022/10/23 01:50:18;;;;;;;24.77;16.80;;;;;;;12.43;81.48;95433.09;5092064;28;20457;-75
2022/10/23 01:52:45;;;;;;;26.67;18.37;;;;;;;12.44;80.73;95416.38;5039908;28;20468;-75
2022/10/23 01:55:14;;;;;;;25.63;18.57;;;;;;;12.48;81.37;95419.59;5091562;28;20454;-75
2022/10/23 01:57:45;;;;;;;27.90;18.70;;;;;;;12.52;81.27;95416.56;5091522;28;20859;-75
2022/10/23 02:00:15;;;;;;;26.67;19.53;;;;;;;12.57;81.27;95397.75;5091840;28;20492;-75
2022/10/23 02:02:45;;;;;;;25.43;18.50;;;;;;;12.63;80.82;95392.78;5091936;28;20960;-75
2022/10/23 02:05:16;;;;;;;21.83;16.63;;;;;;;12.68;81.16;95402.91;5091923;28;20505;-75
2022/10/23 02:07:43;;;;;;;26.60;17.90;;;;;;;12.75;81.29;95411.16;5091655;28;20445;-75
2022/10/23 02:10:10;;;;;;;27.67;19.07;;;;;;;12.80;81.28;95415.06;5039934;28;20949;-75
2022/10/23 02:12:47;;;;;;;26.73;18.90;;;;;;;12.86;80.35;95425.06;5091549;28;20447;-75
2022/10/23 02:15:21;;;;;;;21.37;17.93;;;;;;;12.89;80.26;95414.25;5091233;28;20466;-76
2022/10/23 02:17:55;;;;;;;38.07;17.37;;;;;;;12.93;80.30;95420.94;5091486;28;20443;-75
2022/10/23 02:20:28;;;;;;;27.00;18.30;;;;;;;12.98;80.57;95421.38;5092035;28;20483;-75
2022/10/23 02:23:01;;;;;;;22.03;16.93;;;;;;;13.01;80.50;95425.56;5045190;28;20851;-75
2022/10/23 02:25:33;;;;;;;27.30;17.57;;;;;;;13.02;80.16;95414.91;5095534;28;20439;-76
2022/10/23 02:28:07;;;;;;;25.50;17.00;;;;;;;13.03;80.35;95413.94;5095375;28;20439;-75
2022/10/23 02:30:37;;;;;;;27.47;16.80;;;;;;;13.07;80.78;95411.03;5095478;28;20451;-75
2022/10/23 02:33:06;;;;;;;23.47;16.83;;;;;;;13.09;80.72;95419.63;5095005;28;20957;-75
2022/10/23 02:35:33;;;;;;;31.27;17.50;;;;;;;13.08;80.76;95418.81;5095227;28;20462;-75
2022/10/23 02:38:01;;;;;;;25.83;16.47;;;;;;;13.09;80.28;95420.47;5095728;28;20444;-75
2022/10/23 02:40:36;;;;;;;20.23;16.53;;;;;;;13.12;80.45;95429.91;5094887;28;20483;-75
2022/10/23 02:43:13;;;;;;;23.33;17.60;;;;;;;13.14;80.37;95441.16;5095241;28;20530;-75
2022/10/23 02:45:48;;;;;;;23.63;17.30;;;;;;;13.12;79.69;95437.81;5094791;28;20517;-75
2022/10/23 02:48:22;;;;;;;27.03;16.80;;;;;;;13.14;80.07;95433.25;5094674;28;20938;-76
2022/10/23 02:50:56;;;;;;;39.20;17.10;;;;;;;13.18;80.02;95439.94;5094890;28;20443;-75
2022/10/23 02:53:33;;;;;;;20.23;15.07;;;;;;;13.19;80.26;95426.63;5094799;28;20483;-76
2022/10/23 02:56:05;;;;;;;25.60;15.60;;;;;;;13.19;80.26;95425.81;5095255;28;20501;-75
2022/10/23 02:58:41;;;;;;;19.87;15.03;;;;;;;13.16;79.55;95431.31;5094568;28;20443;-75
2022/10/23 03:01:12;;;;;;;20.77;14.33;;;;;;;13.17;79.77;95409.25;5094652;28;20842;-75
2022/10/23 03:03:42;;;;;;;19.20;14.73;;;;;;;13.21;79.64;95418.59;5094685;28;20946;-76
2022/10/23 03:06:09;;;;;;;23.13;14.60;;;;;;;13.21;79.31;95418.59;5094806;28;20439;-75
2022/10/23 03:08:43;;;;;;;19.00;13.90;;;;;;;13.26;78.90;95438.31;5094434;28;20442;-75
2022/10/23 03:11:10;;;;;;;16.73;13.40;;;;;;;13.32;79.09;95452.78;5094646;28;20442;-76
2022/10/23 03:13:38;;;;;;;22.93;14.57;;;;;;;13.37;79.31;95455.84;5094312;28;20844;-74
2022/10/23 03:16:05;;;;;;;23.97;14.50;;;;;;;13.31;78.53;95453.75;5094270;28;20440;-75
2022/10/23 03:18:32;;;;;;;21.47;16.27;;;;;;;13.32;78.69;95469.44;5094673;28;20452;-75
2022/10/23 03:20:59;;;;;;;24.47;13.67;;;;;;;13.29;78.71;95468.84;5094027;28;20490;-75
2022/10/23 03:23:25;;;;;;;19.20;13.60;;;;;;;13.26;79.38;95471.72;5094221;28;20440;-75
2022/10/23 03:25:53;;;;;;;19.43;15.23;;;;;;;13.26;79.17;95477.00;5094119;28;20497;-75
2022/10/23 03:28:20;;;;;;;22.77;14.40;;;;;;;13.24;79.23;95471.03;5094100;28;20489;-75
2022/10/23 03:30:48;;;;;;;23.80;15.80;;;;;;;13.20;79.72;95474.91;5094262;28;20436;-75
2022/10/23 03:33:15;;;;;;;16.80;13.70;;;;;;;13.23;79.60;95464.09;5092609;28;20568;-76
2022/10/23 03:35:42;;;;;;;17.40;13.60;;;;;;;13.21;79.95;95466.03;5041993;28;20452;-75
2022/10/23 03:38:08;;;;;;;17.40;13.40;;;;;;;13.23;79.36;95472.00;5093736;28;20448;-75
2022/10/23 03:40:35;;;;;;;17.53;12.77;;;;;;;13.19;79.75;95467.97;5093505;28;20487;-75
2022/10/23 03:43:02;;;;;;;26.90;14.70;;;;;;;13.19;79.70;95462.69;5093884;28;20448;-75
2022/10/23 03:45:29;;;;;;;24.43;13.70;;;;;;;13.19;79.61;95467.97;5093737;28;20873;-75
2022/10/23 03:47:57;;;;;;;26.03;16.03;;;;;;;13.21;78.85;95466.88;5093711;28;20451;-75
2022/10/23 03:50:24;;;;;;;23.97;14.33;;;;;;;13.25;78.93;95477.97;5094016;28;20451;-75
2022/10/23 03:52:51;;;;;;;17.60;12.90;;;;;;;13.28;78.97;95473.25;5057496;28;20455;-75
2022/10/23 03:55:18;;;;;;;22.10;13.80;;;;;;;13.34;78.93;95477.19;5093733;28;20457;-75
2022/10/23 03:57:45;;;;;;;23.77;14.10;;;;;;;13.37;78.41;95482.19;5093337;28;20485;-75
2022/10/23 04:00:12;;;;;;;16.90;13.13;;;;;;;13.40;78.38;95468.75;5093216;28;20487;-76
2022/10/23 04:02:39;;;;;;;18.10;13.50;;;;;;;13.40;77.89;95481.94;5093231;28;20458;-75
2022/10/23 04:05:08;;;;;;;18.37;13.10;;;;;;;13.40;77.46;95486.38;5093570;28;20443;-76
2022/10/23 04:07:34;;;;;;;18.53;12.70;;;;;;;13.39;77.94;95493.44;5093419;28;20452;-75
2022/10/23 04:10:01;;;;;;;18.27;13.60;;;;;;;13.39;77.86;95490.81;5093436;28;20451;-75
2022/10/23 04:12:28;;;;;;;19.07;12.43;;;;;;;13.40;77.21;95494.28;5093269;28;20455;-75
2022/10/23 04:14:55;;;;;;;19.20;12.00;;;;;;;13.38;77.05;95496.22;5093082;28;20444;-76
2022/10/23 04:17:21;;;;;;;16.27;12.73;;;;;;;13.32;77.31;95492.31;5092862;28;20931;-74
2022/10/23 04:19:48;;;;;;;19.20;11.43;;;;;;;13.29;77.19;95497.81;5057223;28;20483;-75
2022/10/23 04:22:16;;;;;;;20.33;12.33;;;;;;;13.33;76.98;95505.38;5092975;28;20447;-75
2022/10/23 04:24:45;;;;;;;20.00;11.60;;;;;;;13.32;77.05;95505.50;5092947;28;20447;-75
2022/10/23 04:27:12;;;;;;;22.53;12.57;;;;;;;13.27;76.97;95508.50;5092955;28;20444;-75
2022/10/23 04:29:39;;;;;;;15.87;11.90;;;;;;;13.28;77.32;95504.06;5092754;28;20489;-75
2022/10/23 04:32:07;;;;;;;14.70;10.20;;;;;;;13.24;77.57;95505.28;5092944;28;20446;-76
2022/10/23 04:34:34;;;;;;;14.00;11.20;;;;;;;13.23;77.61;95503.63;5092899;28;20491;-75
2022/10/23 04:37:00;;;;;;;18.20;10.97;;;;;;;13.24;77.40;95497.38;5101173;28;20459;-76
2022/10/23 04:39:29;;;;;;;17.83;12.00;;;;;;;13.23;77.64;95501.00;5112046;28;20900;-77
2022/10/23 04:41:55;;;;;;;15.17;11.00;;;;;;;13.99;94.32;95489.06;5112713;28;20930;-77
2022/10/23 04:44:22;;;;;;;22.37;10.33;;;;;;;14.73;89.66;95491.19;5112650;28;20443;-77
2022/10/23 04:46:49;;;;;;;14.97;11.00;;;;;;;15.32;74.86;95490.09;5112764;28;20492;-75
2022/10/23 04:49:16;;;;;;;14.47;10.80;;;;;;;15.24;70.71;95498.75;5112737;28;20435;-76
2022/10/23 04:51:42;;;;;;;18.43;10.27;;;;;;;15.10;70.08;95504.50;5112268;28;20778;-76
2022/10/23 04:54:09;;;;;;;19.60;10.40;;;;;;;14.91;69.63;95504.53;5112359;28;20471;-75
2022/10/23 04:56:37;;;;;;;13.93;10.93;;;;;;;14.69;70.06;95503.84;5112648;28;20432;-75
2022/10/23 04:59:05;;;;;;;17.37;11.03;;;;;;;14.49;70.90;95504.84;5076241;28;20500;-76
2022/10/23 05:01:32;;;;;;;23.23;14.47;;;;;;;14.34;72.38;95514.09;5112549;28;20492;-76
2022/10/23 05:03:58;;;;;;;19.83;11.13;;;;;;;14.21;72.50;95515.22;5112445;28;20443;-75
2022/10/23 05:06:25;;;;;;;12.80;11.00;;;;;;;14.18;73.14;95514.66;5112164;28;20447;-75
2022/10/23 05:08:52;;;;;;;15.50;10.97;;;;;;;14.32;72.70;95516.88;5112503;28;20443;-75
2022/10/23 05:11:19;;;;;;;23.70;10.07;;;;;;;14.59;71.25;95516.22;5111833;28;20438;-75
2022/10/23 05:13:47;;;;;;;16.70;10.70;;;;;;;14.98;70.33;95509.09;5059513;28;20444;-75
2022/10/23 05:16:28;;;;;;;14.93;9.67;;;;;;;15.52;68.21;95512.03;5112123;28;20444;-75
2022/10/23 05:18:55;;;;;;;16.97;9.23;;;;;;;16.09;64.68;95511.78;5111837;28;20437;-75
2022/10/23 05:21:25;;;;;;;20.03;9.33;;;;;;;16.68;62.61;95513.06;5075663;28;20545;-75
2022/10/23 05:23:53;;;;;;;14.23;8.63;;;;;;;17.33;61.03;95510.06;5111651;28;21005;-75
2022/10/23 05:26:21;;;;;;;12.03;9.60;;;;;;;17.88;58.79;95513.22;5112102;28;20455;-76
2022/10/23 05:28:49;;;;;;;15.73;9.33;;;;;;;18.40;56.16;95512.25;5111807;28;20450;-75
2022/10/23 05:31:17;;;;;;;11.73;9.30;;;;;;;18.89;54.61;95507.84;5112211;28;20527;-75
2022/10/23 05:33:44;;;;;;;13.67;11.00;;;;;;;19.15;53.44;95510.34;5111846;28;20519;-75
2022/10/23 05:36:13;;;;;;;10.17;9.00;;;;;;;19.36;52.83;95523.94;5112162;28;20450;-75
2022/10/23 05:38:40;;;;;;;16.73;10.30;;;;;;;19.63;51.81;95524.59;5111929;28;20446;-76
2022/10/23 05:41:07;;;;;;;11.20;9.60;;;;;;;19.88;51.29;95539.50;5111682;28;20479;-76
2022/10/23 05:43:34;;;;;;;19.93;10.07;;;;;;;19.42;53.19;95551.75;5112456;28;20922;-76
2022/10/23 05:46:04;;;;;;;17.30;9.87;;;;;;;19.52;53.56;95557.72;5112312;28;20442;-76
2022/10/23 05:48:31;;;;;;;16.10;12.57;;;;;;;19.68;53.08;95560.38;5112355;28;20534;-75
2022/10/23 05:51:03;;;;;;;16.07;12.87;;;;;;;19.98;52.57;95557.97;5112198;28;20455;-75
2022/10/23 05:53:29;;;;;;;18.97;11.40;;;;;;;20.18;52.42;95558.38;5112399;28;20561;-76
2022/10/23 05:55:56;;;;;;;27.30;12.13;;;;;;;20.14;52.62;95576.56;5113446;28;20833;-76
2022/10/23 05:58:23;;;;;;;16.20;10.97;;;;;;;20.44;52.22;95577.63;5116564;28;20446;-76
2022/10/23 06:00:50;;;;;;;15.37;10.77;;;;;;;20.48;50.86;95575.44;5063659;28;20860;-76
2022/10/23 06:03:18;;;;;;;16.43;12.50;;;;;;;20.96;72.98;95566.34;5116235;28;20450;-77
2022/10/23 06:05:49;;;;;;;15.60;10.93;;;;;;;21.59;62.58;95578.53;5116123;28;20975;-77
2022/10/23 06:08:16;;;;;;;13.13;9.90;;;;;;;21.64;48.04;95589.50;5063937;28;20511;-76
2022/10/23 06:10:43;;;;;;;12.37;8.70;;;;;;;20.98;47.65;95583.84;5116204;28;20812;-76
2022/10/23 06:13:10;;;;;;;16.63;8.63;;;;;;;20.50;49.89;95579.59;5116586;28;20446;-78
2022/10/23 06:15:37;;;;;;;12.50;9.20;;;;;;;19.90;52.56;95587.28;5116045;28;20503;-77
2022/10/23 06:18:05;;;;;;;12.97;7.83;;;;;;;19.48;54.98;95583.84;5116858;28;20446;-77
2022/10/23 06:20:35;;;;;;;18.40;9.80;;;;;;;19.02;57.63;95587.97;5116566;28;20490;-76
2022/10/23 06:23:02;;;;;;;12.80;10.00;;;;;;;18.70;60.04;95586.09;5116338;28;20450;-76
2022/10/23 06:25:29;;;;;;;15.67;8.93;;;;;;;18.50;64.94;95587.34;5115948;28;20462;-77
2022/10/23 06:27:55;;;;;;;13.67;7.63;;;;;;;18.33;66.85;95586.47;5116026;28;20454;-77
2022/10/23 06:30:22;;;;;;;17.00;10.13;;;;;;;18.20;65.90;95580.75;5115706;28;20488;-76
2022/10/23 06:32:49;;;;;;;25.00;13.30;;;;;;;18.08;65.77;95582.03;5113640;28;20470;-77
2022/10/23 06:35:16;;;;;;;17.13;12.50;;;;;;;18.05;66.53;95577.88;5115860;28;20476;-77
2022/10/23 06:37:44;;;;;;;19.13;11.57;;;;;;;17.89;67.52;95581.25;5063149;28;20455;-77
2022/10/23 06:40:11;;;;;;;16.90;11.20;;;;;;;17.83;68.66;95584.56;5105782;28;20981;-76
2022/10/23 06:42:38;;;;;;;19.07;8.90;;;;;;;17.69;73.03;95585.16;5110891;28;20521;-78
2022/10/23 06:45:06;;;;;;;13.27;7.70;;;;;;;17.56;73.48;95584.69;5079581;28;20500;-78
2022/10/23 06:47:32;;;;;;;12.47;7.53;;;;;;;17.43;75.16;95586.94;5115412;28;20439;-77
2022/10/23 06:49:59;;;;;;;8.20;7.40;;;;;;;17.31;75.52;95589.81;5100409;28;20446;-77
2022/10/23 06:52:26;;;;;;;19.10;7.17;;;;;;;17.24;76.16;95590.59;5115245;28;20554;-76
2022/10/23 06:54:54;;;;;;;14.30;7.70;;;;;;;17.27;76.53;95585.81;5062406;28;20463;-76
2022/10/23 06:57:21;;;;;;;14.63;7.07;;;;;;;17.33;76.68;95585.19;5107242;28;21114;-76
2022/10/23 06:59:47;;;;;;;17.57;8.33;;;;;;;17.36;76.39;95591.19;5108303;28;20918;-77
2022/10/23 07:02:14;;;;;;;11.67;7.27;;;;;;;17.48;76.16;95582.00;5112593;28;20809;-78
2022/10/23 07:04:41;;;;;;;9.17;6.33;;;;;;;17.63;75.46;95593.69;5115352;28;20443;-76
2022/10/23 07:07:08;;;;;;;9.50;6.77;;;;;;;17.86;75.19;95588.72;5112001;28;20520;-77
2022/10/23 07:09:38;;;;;;;11.23;6.80;;;;;;;18.01;73.07;95589.81;5113644;28;20447;-77
2022/10/23 07:12:07;;;;;;;10.10;5.90;;;;;;;18.18;72.64;95598.66;5114785;28;20443;-76
2022/10/23 07:14:33;;;;;;;13.80;6.97;;;;;;;18.34;71.59;95598.75;5078837;28;20443;-76
2022/10/23 07:17:00;;;;;;;8.43;7.07;;;;;;;18.43;70.59;95588.97;5076702;28;20451;-76
2022/10/23 07:19:27;;;;;;;12.33;6.80;;;;;;;18.49;69.80;95583.84;5112940;28;20439;-76
2022/10/23 07:21:54;;;;;;;8.07;6.60;;;;;;;18.60;69.42;95589.88;5114509;28;20487;-76
2022/10/23 07:24:21;;;;;;;12.20;7.10;;;;;;;18.64;69.40;95584.09;5099278;28;20456;-76
2022/10/23 07:26:47;;;;;;;6.57;5.90;;;;;;;18.65;69.35;95590.25;5107490;28;20435;-76
2022/10/23 07:29:16;;;;;;;10.27;6.60;;;;;;;18.70;72.85;95587.94;5114035;28;20965;-76
2022/10/23 07:31:42;;;;;;;10.50;6.70;;;;;;;18.73;68.99;95587.59;5113982;28;20454;-76
2022/10/23 07:34:10;;;;;;;12.63;7.30;;;;;;;18.74;70.84;95583.94;5114169;28;20458;-76
2022/10/23 07:36:37;;;;;;;16.80;6.03;;;;;;;18.79;68.64;95576.31;5113805;28;20503;-76
2022/10/23 07:39:04;;;;;;;9.80;7.27;;;;;;;18.81;68.33;95575.16;5113524;28;20830;-76
2022/10/23 07:41:30;;;;;;;14.57;6.77;;;;;;;18.84;68.94;95584.66;5061077;28;20992;-76
2022/10/23 07:43:57;;;;;;;10.73;7.33;;;;;;;18.92;69.00;95582.00;5113942;28;20823;-76
2022/10/23 07:46:25;;;;;;;18.43;8.40;;;;;;;19.01;67.76;95575.69;5114068;28;20571;-76
2022/10/23 07:48:52;;;;;;;12.23;5.73;;;;;;;19.08;66.41;95576.69;5060785;28;20435;-76
2022/10/23 07:51:19;;;;;;;9.80;6.50;;;;;;;19.09;66.42;95583.69;5113604;28;20450;-76
2022/10/23 07:53:46;;;;;;;12.30;6.90;;;;;;;19.14;66.14;95592.00;5113390;28;20478;-75
2022/10/23 07:56:16;;;;;;;10.10;6.70;;;;;;;19.19;65.94;95589.66;5113311;28;20815;-76
2022/10/23 07:58:43;;;;;;;8.30;6.53;;;;;;;19.25;65.59;95596.16;5113122;28;20925;-76
2022/10/23 08:01:16;;;;;;;9.03;7.37;;;;;;;19.30;65.79;95585.84;5113047;28;20478;-76
2022/10/23 08:03:44;;;;;;;9.33;6.47;;;;;;;19.37;64.79;95591.31;5112943;28;20436;-76
2022/10/23 08:06:11;;;;;;;16.60;5.77;;;;;;;19.41;64.03;95590.00;5113292;28;20466;-76
2022/10/23 08:08:38;;;;;;;15.13;7.00;;;;;;;19.50;63.72;95578.34;5113103;28;20470;-76
2022/10/23 08:11:05;;;;;;;7.97;6.93;;;;;;;19.56;63.54;95599.00;5113412;28;20454;-76
2022/10/23 08:13:32;;;;;;;11.07;6.00;;;;;;;19.64;63.58;95592.81;5113521;28;20435;-76
2022/10/23 08:15:59;;;;;;;13.63;5.33;;;;;;;19.68;63.05;95579.03;5113158;28;20443;-76
2022/10/23 08:18:26;;;;;;;9.87;4.97;;;;;;;19.76;62.48;95586.16;5112622;28;20435;-76
2022/10/23 08:21:00;;;;;;;11.87;5.27;;;;;;;19.84;61.75;95585.31;5112877;28;20487;-76
2022/10/23 08:23:28;;;;;;;8.77;5.47;;;;;;;19.96;61.82;95586.63;5113484;28;20444;-76
2022/10/23 08:25:59;;;;;;;7.40;6.20;;;;;;;19.97;61.73;95589.13;5113116;28;20447;-76
2022/10/23 08:28:26;;;;;;;8.13;5.60;;;;;;;20.04;61.32;95583.94;5113166;28;20876;-77
2022/10/23 08:30:53;;;;;;;8.90;5.30;;;;;;;20.08;61.73;95596.75;5112669;28;20945;-76
2022/10/23 08:33:20;;;;;;;14.13;5.63;;;;;;;20.11;61.61;95590.22;5112857;28;20447;-76
2022/10/23 08:35:47;;;;;;;9.77;5.77;;;;;;;20.19;61.16;95592.88;5112859;28;20442;-76
2022/10/23 08:38:15;;;;;;;6.30;5.70;;;;;;;20.28;61.45;95589.19;5113077;28;20451;-76
2022/10/23 08:40:45;;;;;;;10.30;6.00;;;;;;;20.36;60.11;95589.16;5112955;28;20996;-75
2022/10/23 08:43:18;;;;;;;12.73;6.40;;;;;;;20.38;59.78;95581.81;5112656;28;20454;-76
2022/10/23 08:45:49;;;;;;;7.33;6.30;;;;;;;20.58;60.45;95589.41;5112367;28;20441;-76
2022/10/23 08:48:22;;;;;;;9.30;5.37;;;;;;;20.63;59.22;95587.06;5112456;28;20478;-76
2022/10/23 08:50:53;;;;;;;12.33;9.00;;;;;;;20.65;59.71;95583.22;5112160;28;20438;-75
2022/10/23 08:53:27;;;;;;;6.80;5.70;;;;;;;20.62;59.30;95577.41;5111451;28;20835;-75
2022/10/23 08:56:02;;;;;;;6.83;5.90;;;;;;;20.65;59.85;95567.19;5111686;28;20442;-75
2022/10/23 08:58:36;;;;;;;7.90;5.53;;;;;;;20.73;59.19;95579.66;5111539;28;20529;-76
2022/10/23 09:01:23;;;;;;;8.33;5.00;;;;;;;20.67;59.47;95575.84;5111290;28;20506;-76
2022/10/23 09:03:50;;;;;;;7.70;5.23;;;;;;;20.73;60.45;95577.81;5111780;28;20450;-76
2022/10/23 09:06:30;;;;;;;6.17;4.60;;;;;;;20.78;60.01;95584.47;5111915;28;20443;-76
2022/10/23 09:09:19;;;;;;;14.97;5.50;;;;;;;20.82;59.62;95573.28;5111554;28;20453;-76
2022/10/23 09:11:55;;;;;;;13.00;7.23;;;;;;;21.00;59.46;95581.81;5028650;28;20505;-76
2022/10/23 09:15:04;;;;;;;13.80;5.37;;;;;;;21.16;59.51;95580.06;5028436;28;20815;-76
2022/10/23 09:17:32;;;;;;;6.87;5.40;;;;;;;21.26;58.17;95572.66;4969795;28;20453;-75
2022/10/23 09:20:21;;;;;;;6.40;5.03;;;;;;;21.31;59.52;95572.94;4969967;28;20445;-76
2022/10/23 09:22:50;;;;;;;7.50;5.80;;;;;;;21.22;58.33;95572.16;4969882;28;20500;-77
2022/10/23 09:25:24;;;;;;;8.50;5.40;;;;;;;21.22;57.83;95557.97;4970009;28;20452;-76
2022/10/23 09:27:55;;;;;;;10.67;5.53;;;;;;;21.09;58.01;95557.72;4969737;28;20485;-76
2022/10/23 09:30:27;;;;;;;11.00;4.77;;;;;;;21.09;57.74;95557.72;4969457;28;20469;-76
2022/10/23 09:32:53;;;;;;;6.53;4.50;;;;;;;20.98;57.77;95562.50;4970247;28;20441;-76
2022/10/23 09:35:22;;;;;;;10.33;5.20;;;;;;;20.95;57.59;95536.16;4970256;28;20921;-76
2022/10/23 09:37:52;;;;;;;9.23;5.07;;;;;;;21.01;57.84;95546.13;4970619;28;20452;-76
2022/10/23 09:40:25;;;;;;;8.40;4.83;;;;;;;21.10;57.62;95549.53;4970382;28;20939;-76
2022/10/23 09:42:58;;;;;;;11.20;4.57;;;;;;;21.14;58.09;95556.22;4970204;28;20563;-76
2022/10/23 09:45:30;;;;;;;13.53;5.27;;;;;;;21.22;57.87;95552.63;4970666;28;20457;-76
2022/10/23 09:48:14;;;;;;;8.03;5.37;;;;;;;21.28;58.07;95542.09;4971816;28;20453;-76
2022/10/23 09:50:52;;;;;;;8.80;4.60;;;;;;;21.31;58.04;95552.41;5005786;28;20474;-77
2022/10/23 09:53:26;;;;;;;5.50;4.67;;;;;;;21.31;58.23;95559.59;5017633;28;146573;-76
2022/10/23 09:55:58;;;;;;;7.43;4.23;;;;;;;21.31;56.73;95549.75;5099089;28;20462;-76
2022/10/23 09:58:31;;;;;;;12.80;4.87;;;;;;;21.27;56.59;95555.63;5112234;28;20435;-76
2022/10/23 10:00:58;;;;;;;5.20;4.00;;;;;;;21.33;57.49;95560.25;5112319;28;20447;-76
2022/10/23 10:03:25;;;;;;;4.63;4.23;;;;;;;21.42;56.35;95548.50;5076562;28;20448;-76
2022/10/23 10:05:58;;;;;;;4.63;3.40;;;;;;;21.37;55.43;95547.34;5112421;28;20450;-75
2022/10/23 10:08:32;;;;;;;6.00;3.53;;;;;;;21.43;55.05;95544.00;5112650;28;20435;-76
2022/10/23 10:11:05;;;;;;;6.27;3.37;;;;;;;21.37;54.07;95544.69;5112581;28;20450;-75
2022/10/23 10:13:50;;;;;;;6.73;3.87;;;;;;;21.37;54.89;95540.19;5076588;28;20861;-76
2022/10/23 10:16:23;;;;;;;4.23;3.50;;;;;;;21.37;55.01;95540.19;5079840;28;20447;-75
2022/10/23 10:19:00;;;;;;;7.20;3.20;;;;;;;21.43;53.95;95536.81;5112261;28;21166;-76
2022/10/23 10:21:32;;;;;;;7.13;3.80;;;;;;;21.46;53.93;95544.47;5112216;28;20968;-75
2022/10/23 10:24:05;;;;;;;3.80;3.40;;;;;;;21.53;52.96;95536.53;5111761;28;20508;-76
2022/10/23 10:26:40;;;;;;;4.60;3.20;;;;;;;21.56;53.27;95533.50;5112048;28;20461;-76
2022/10/23 10:29:17;;;;;;;8.10;3.47;;;;;;;21.57;53.76;95527.16;5111933;28;20454;-75
2022/10/23 10:31:56;;;;;;;3.53;2.90;;;;;;;21.59;53.15;95525.97;5109493;28;20510;-76
2022/10/23 10:34:29;;;;;;;4.47;3.50;;;;;;;21.65;53.63;95517.22;5102910;28;20444;-76
2022/10/23 10:37:00;;;;;;;18.43;5.10;;;;;;;21.71;53.13;95521.00;5069947;28;20518;-76
2022/10/23 10:39:38;;;;;;;6.37;4.10;;;;;;;21.78;52.12;95524.59;5091753;28;20496;-76
2022/10/23 10:42:26;;;;;;;4.90;4.53;;;;;;;21.89;50.81;95531.31;5106494;28;20478;-76
2022/10/23 10:45:15;;;;;;;4.70;2.73;;;;;;;21.89;50.78;95517.97;5116034;28;20507;-76
2022/10/23 10:47:50;;;;;;;3.50;3.13;;;;;;;21.89;49.97;95529.47;5116146;28;20447;-76
2022/10/23 10:50:21;;;;;;;4.03;2.40;;;;;;;21.91;49.66;95513.25;5115948;28;20932;-77
2022/10/23 10:52:56;;;;;;;5.33;3.10;;;;;;;21.87;49.59;95536.84;5116078;28;20474;-76
2022/10/23 10:55:28;;;;;;;4.67;3.70;;;;;;;21.84;50.08;95531.88;5115653;28;20459;-76
2022/10/23 10:58:02;;;;;;;4.27;3.90;;;;;;;21.87;49.14;95533.34;5115740;28;20926;-76
2022/10/23 11:00:33;;;;;;;3.43;2.83;;;;;;;21.85;49.47;95520.19;5080001;28;20446;-77
2022/10/23 11:03:09;;;;;;;3.93;3.20;;;;;;;21.80;49.35;95521.75;5115851;28;20486;-76
2022/10/23 11:05:41;;;;;;;5.53;2.97;;;;;;;21.81;48.29;95512.72;5115154;28;20511;-76
2022/10/23 11:08:14;;;;;;;3.20;3.00;;;;;;;21.77;48.89;95509.59;5115424;28;20449;-76
2022/10/23 11:10:46;;;;;;;3.43;2.77;;;;;;;21.80;48.92;95508.38;5115582;28;20853;-76
2022/10/23 11:13:26;;;;;;;5.30;2.50;;;;;;;21.81;48.79;95510.88;5115474;28;20454;-76
2022/10/23 11:15:57;;;;;;;4.33;3.10;;;;;;;21.78;48.73;95497.06;5115236;28;20442;-76
2022/10/23 11:18:28;;;;;;;4.13;3.10;;;;;;;21.82;49.40;95501.00;5096257;28;20443;-76
2022/10/23 11:21:07;;;;;;;4.63;3.67;;;;;;;21.83;49.44;95498.16;5115102;28;20454;-76
2022/10/23 11:23:59;;;;;;;5.87;3.67;;;;;;;21.87;49.99;95488.75;5115171;28;20995;-76
2022/10/23 11:26:41;;;;;;;3.23;2.70;;;;;;;21.89;48.32;95491.25;5115223;28;20462;-76
2022/10/23 11:29:25;;;;;;;5.40;3.10;;;;;;;21.89;48.13;95484.06;5115130;28;20446;-76
2022/10/23 11:32:10;;;;;;;6.70;3.23;;;;;;;21.90;47.87;95482.22;5079074;28;20431;-76
2022/10/23 11:34:54;;;;;;;11.57;3.83;;;;;;;21.89;47.78;95491.25;5114960;28;20462;-76
2022/10/23 11:37:23;;;;;;;3.20;2.90;;;;;;;21.84;48.50;95480.28;5115171;28;20457;-78
2022/10/23 11:40:04;;;;;;;3.67;3.37;;;;;;;21.83;48.61;95478.63;5115157;28;20450;-76